createdAt,value
2018-07-03T00:02:30.239Z,2.25
2018-07-03T00:07:33.959Z,4.20
2018-07-03T00:12:38.073Z,3.00
2018-07-03T00:17:41.384Z,2.00
2018-07-03T00:22:44.988Z,3.00
2018-07-03T00:27:48.483Z,2.75
2018-07-03T00:32:52.085Z,2.20
2018-07-03T00:37:55.717Z,2.00
2018-07-03T00:42:59.321Z,2.40
2018-07-03T00:48:02.984Z,3.00
2018-07-03T00:53:06.773Z,2.20
2018-07-03T00:58:10.592Z,3.60
2018-07-03T01:03:14.163Z,2.80
2018-07-03T01:08:17.859Z,2.00
2018-07-03T01:13:21.404Z,3.00
2018-07-03T01:18:25.053Z,4.20
2018-07-03T01:23:28.817Z,2.00
2018-07-03T01:28:32.569Z,2.00
2018-07-03T01:33:36.180Z,2.00
2018-07-03T01:38:39.496Z,4.25
2018-07-03T01:43:43.125Z,4.40
2018-07-03T01:48:46.701Z,2.75
2018-07-03T01:53:50.332Z,2.80
2018-07-03T01:58:54.422Z,2.00
2018-07-03T02:03:58.170Z,2.00
2018-07-03T02:09:01.844Z,3.25
2018-07-03T02:14:05.531Z,3.00
2018-07-03T02:19:08.841Z,4.00
2018-07-03T02:24:12.438Z,3.50
2018-07-03T02:29:16.047Z,4.00
2018-07-03T02:34:19.434Z,3.25
2018-07-03T02:39:23.060Z,4.00
2018-07-03T02:44:26.931Z,5.25
2018-07-03T02:49:30.392Z,3.00
2018-07-03T02:54:34.089Z,5.00
2018-07-03T02:59:37.756Z,3.25
2018-07-03T03:04:41.385Z,5.20
2018-07-03T03:09:44.992Z,3.00
2018-07-03T03:14:48.615Z,5.00
2018-07-03T03:19:52.351Z,7.40
2018-07-03T03:24:55.952Z,6.50
2018-07-03T03:29:59.244Z,4.50
2018-07-03T03:35:03.089Z,5.00
2018-07-03T03:40:07.591Z,5.00
2018-07-03T03:45:11.196Z,5.00
2018-07-03T03:50:14.828Z,5.80
2018-07-03T03:55:18.548Z,8.20
2018-07-03T04:00:22.260Z,6.00
2018-07-03T04:05:25.838Z,4.00
2018-07-03T04:10:29.432Z,7.25
2018-07-03T04:15:32.985Z,6.80
2018-07-03T04:20:36.604Z,6.50
2018-07-03T04:25:40.248Z,8.00
2018-07-03T04:30:43.860Z,7.25
2018-07-03T04:35:47.446Z,8.75
2018-07-03T04:40:51.249Z,6.80
2018-07-03T04:45:55.228Z,7.00
2018-07-03T04:50:59.352Z,9.25
2018-07-03T04:56:02.948Z,8.75
2018-07-03T05:01:07.352Z,8.00
2018-07-03T05:06:10.783Z,6.00
2018-07-03T05:11:14.078Z,7.25
2018-07-03T05:16:17.672Z,5.00
2018-07-03T05:21:21.457Z,9.40
2018-07-03T05:26:25.057Z,7.40
2018-07-03T05:31:28.733Z,6.75
2018-07-03T05:36:32.499Z,7.00
2018-07-03T05:41:36.553Z,8.20
2018-07-03T05:46:40.428Z,9.00
2018-07-03T05:51:44.057Z,8.50
2018-07-03T05:56:47.628Z,8.25
2018-07-03T06:01:51.829Z,8.00
2018-07-03T06:06:55.475Z,6.00
2018-07-03T06:11:59.154Z,4.80
2018-07-03T06:17:02.664Z,5.50
2018-07-03T06:22:06.383Z,7.20
2018-07-03T06:27:10.046Z,6.80
2018-07-03T06:32:13.852Z,9.75
2018-07-03T06:37:17.487Z,6.00
2018-07-03T06:42:21.135Z,5.60
2018-07-03T06:47:24.489Z,5.00
2018-07-03T06:52:28.013Z,7.00
2018-07-03T06:57:31.655Z,4.00
2018-07-03T07:02:35.258Z,3.60
2018-07-03T07:07:38.872Z,5.00
2018-07-03T07:12:42.613Z,3.40
2018-07-03T07:17:46.247Z,2.80
2018-07-03T07:22:49.583Z,5.00
2018-07-03T07:27:53.252Z,2.20
2018-07-03T07:32:56.917Z,3.25
2018-07-03T07:38:00.744Z,3.00
2018-07-03T07:43:04.629Z,2.00
2018-07-03T07:48:08.272Z,3.00
2018-07-03T07:53:11.862Z,3.00
2018-07-03T07:58:15.552Z,3.00
2018-07-03T08:03:19.193Z,4.00
2018-07-03T08:08:22.868Z,4.00
2018-07-03T08:13:26.534Z,2.00
2018-07-03T08:18:29.884Z,3.20
2018-07-03T08:23:33.754Z,3.00
2018-07-03T08:28:37.612Z,2.40
2018-07-03T08:33:41.053Z,4.20
2018-07-03T08:38:44.847Z,4.00
2018-07-03T08:43:48.207Z,1.80
2018-07-03T08:48:51.808Z,2.00
2018-07-03T08:53:55.416Z,1.80
2018-07-03T08:58:59.285Z,2.00
2018-07-03T09:04:02.914Z,3.50
2018-07-03T09:09:08.926Z,1.50
2018-07-03T09:14:12.231Z,3.00
2018-07-03T09:19:15.760Z,1.40
2018-07-03T09:24:19.635Z,3.00
2018-07-03T09:29:23.248Z,2.00
2018-07-03T09:34:26.866Z,3.25
2018-07-03T09:39:30.907Z,1.40
2018-07-03T09:44:34.518Z,1.40
2018-07-03T09:49:38.228Z,2.00
2018-07-03T09:54:41.939Z,2.00
2018-07-03T09:59:45.255Z,3.00
2018-07-03T10:04:48.950Z,1.25
2018-07-03T10:09:52.692Z,1.80
2018-07-03T10:14:56.267Z,2.80
2018-07-03T10:19:59.940Z,1.50
2018-07-03T10:25:03.268Z,2.00
2018-07-03T10:30:07.172Z,2.80
2018-07-03T10:35:10.768Z,1.60
2018-07-03T10:40:14.394Z,3.40
2018-07-03T10:45:18.007Z,2.00
2018-07-03T10:50:21.711Z,2.40
2018-07-03T10:55:25.321Z,3.80
2018-07-03T11:00:29.088Z,3.00
2018-07-03T11:05:32.755Z,2.25
2018-07-03T11:10:36.501Z,2.00
2018-07-03T11:15:40.166Z,3.00
2018-07-03T11:20:43.788Z,3.25
2018-07-03T11:25:47.429Z,3.00
2018-07-03T11:30:50.889Z,2.40
2018-07-03T11:35:54.547Z,2.00
2018-07-03T11:40:58.191Z,2.60
2018-07-03T11:46:01.817Z,2.00
2018-07-03T11:51:05.592Z,3.60
2018-07-03T11:56:09.480Z,1.00
2018-07-03T12:01:13.132Z,2.80
2018-07-03T12:06:16.796Z,2.25
2018-07-03T12:11:20.518Z,4.00
2018-07-03T12:16:24.246Z,6.80
2018-07-03T12:21:28.666Z,7.00
2018-07-03T12:26:32.312Z,6.00
2018-07-03T12:31:35.913Z,4.00
2018-07-03T12:36:39.545Z,4.00
2018-07-03T12:41:43.280Z,5.75
2018-07-03T12:46:46.996Z,3.00
2018-07-03T12:51:50.626Z,4.00
2018-07-03T12:56:54.253Z,2.40
2018-07-03T13:01:58.048Z,2.75
2018-07-03T13:07:01.683Z,3.75
2018-07-03T13:12:05.357Z,3.00
2018-07-03T13:17:09.308Z,3.00
2018-07-03T13:22:12.884Z,3.50
2018-07-03T13:27:16.665Z,7.25
2018-07-03T13:32:20.293Z,9.80
2018-07-03T13:37:24.015Z,8.50
2018-07-03T13:42:27.812Z,8.00
2018-07-03T13:47:31.424Z,9.60
2018-07-03T13:52:34.994Z,9.40
2018-07-03T13:57:38.324Z,16.00
2018-07-03T14:02:42.058Z,16.40
2018-07-03T14:07:45.835Z,22.75
2018-07-03T14:12:49.693Z,28.60
2018-07-03T14:17:53.340Z,32.00
2018-07-03T14:22:57.350Z,19.25
2018-07-03T14:28:01.205Z,24.00
2018-07-03T14:33:04.792Z,19.00
2018-07-03T14:38:08.879Z,16.20
2018-07-03T14:43:12.676Z,18.00
2018-07-03T14:48:16.316Z,13.75
2018-07-03T14:53:19.672Z,12.00
2018-07-03T14:58:23.513Z,13.00
2018-07-03T15:03:27.279Z,10.75
2018-07-03T15:08:30.775Z,11.25
2018-07-03T15:13:34.588Z,12.40
2018-07-03T15:18:43.624Z,13.00
2018-07-03T15:23:47.298Z,12.75
2018-07-03T15:28:51.202Z,18.75
2018-07-03T15:33:55.264Z,11.50
2018-07-03T15:38:58.857Z,10.25
2018-07-03T15:44:13.921Z,8.80
2018-07-03T15:49:18.279Z,8.80
2018-07-03T15:54:21.947Z,9.00
2018-07-03T15:59:26.024Z,10.75
2018-07-03T16:05:06.184Z,10.50
2018-07-03T16:10:10.024Z,20.00
2018-07-03T16:15:13.751Z,13.00
2018-07-03T16:20:23.079Z,10.80
2018-07-03T16:25:26.727Z,16.50
2018-07-03T16:30:30.884Z,25.00
2018-07-03T16:40:27.125Z,23.00
2018-07-03T16:45:32.052Z,23.75
2018-07-03T16:50:35.940Z,20.75
2018-07-03T16:55:39.628Z,18.25
2018-07-03T17:00:43.598Z,19.00
2018-07-03T17:05:47.064Z,20.20
2018-07-03T17:10:51.177Z,16.50
2018-07-03T17:15:55.463Z,15.80
2018-07-03T17:20:59.401Z,17.00
2018-07-03T17:26:03.089Z,15.00
2018-07-03T17:31:07.177Z,16.75
2018-07-03T17:36:11.668Z,12.50
2018-07-03T17:41:26.881Z,15.40
2018-07-03T17:46:30.477Z,13.25
2018-07-03T17:51:34.119Z,13.20
2018-07-03T17:56:37.540Z,10.00
2018-07-03T18:01:41.392Z,11.60
2018-07-03T18:06:45.157Z,11.40
2018-07-03T18:11:48.742Z,9.75
2018-07-03T18:16:52.438Z,10.00
2018-07-03T18:21:55.758Z,10.50
2018-07-03T18:26:59.560Z,10.75
2018-07-03T18:32:02.854Z,10.40
2018-07-03T18:37:06.568Z,9.80
2018-07-03T18:42:10.660Z,10.60
2018-07-03T18:47:14.562Z,8.80
2018-07-03T18:52:17.923Z,9.00
2018-07-03T18:57:21.782Z,10.25
2018-07-03T19:02:25.573Z,12.40
2018-07-03T19:07:29.148Z,8.00
2018-07-03T19:12:33.124Z,11.25
2018-07-03T19:17:36.745Z,10.50
2018-07-03T19:22:40.501Z,10.40
2018-07-03T19:27:44.264Z,12.40
2018-07-03T19:32:48.136Z,10.25
2018-07-03T19:37:51.679Z,9.00
2018-07-03T19:43:30.959Z,7.50
2018-07-03T19:48:34.374Z,7.00
2018-07-03T19:53:38.177Z,7.00
2018-07-03T19:58:41.865Z,6.75
2018-07-03T20:03:46.200Z,7.20
2018-07-03T20:08:49.976Z,8.25
2018-07-03T20:13:53.692Z,7.00
2018-07-03T20:18:58.095Z,7.60
2018-07-03T20:24:02.110Z,6.25
2018-07-03T20:29:05.972Z,7.00
2018-07-03T20:34:10.170Z,6.00
2018-07-03T20:39:14.137Z,6.75
2018-07-03T20:44:17.937Z,5.75
2018-07-03T20:49:21.900Z,5.25
2018-07-03T20:54:25.478Z,4.00
2018-07-03T20:59:30.106Z,6.25
2018-07-03T21:04:34.129Z,6.00
2018-07-03T21:09:38.045Z,4.50
2018-07-03T21:14:42.373Z,6.20
2018-07-03T21:19:46.622Z,8.00
2018-07-03T21:24:50.884Z,9.75
2018-07-03T21:29:55.332Z,6.40
2018-07-03T21:34:59.183Z,8.50
2018-07-03T21:40:02.846Z,6.25
2018-07-03T21:45:07.769Z,6.67
2018-07-03T21:50:11.513Z,6.60
2018-07-03T21:55:15.126Z,5.40
2018-07-03T22:00:23.446Z,5.50
2018-07-03T22:05:27.289Z,6.00
2018-07-03T22:10:31.887Z,8.80
2018-07-03T22:15:35.579Z,8.75
2018-07-03T22:20:39.478Z,7.00
2018-07-03T22:25:44.250Z,7.80
2018-07-03T22:30:47.858Z,7.00
2018-07-03T22:35:51.735Z,5.50
2018-07-03T22:40:55.630Z,8.00
2018-07-03T22:46:00.169Z,7.80
2018-07-03T22:51:04.019Z,8.25
2018-07-03T22:56:07.665Z,7.25
2018-07-03T23:01:11.305Z,7.60
2018-07-03T23:06:14.957Z,7.50
2018-07-03T23:11:18.620Z,8.00
2018-07-03T23:16:23.233Z,9.00
2018-07-03T23:21:26.771Z,6.75
2018-07-03T23:26:30.353Z,5.75
2018-07-03T23:31:33.743Z,7.25
2018-07-03T23:36:37.443Z,7.75
2018-07-03T23:41:43.205Z,6.60
2018-07-03T23:46:58.057Z,7.00
2018-07-03T23:52:12.788Z,7.25
2018-07-03T23:57:27.873Z,6.00
